sensor_id;sensor_type;location;lat;lon;timestamp;P1;durP1;ratioP1;P2;durP2;ratioP2
60847;SDS011;46681;47.696;9.140;2023-03-14T00:01:21;2.50;;;1.00;;
60847;SDS011;46681;47.696;9.140;2023-03-14T00:03:47;2.37;;;1.03;;
60847;SDS011;46681;47.696;9.140;2023-03-14T00:06:17;3.43;;;1.23;;
60847;SDS011;46681;47.696;9.140;2023-03-14T00:08:45;1.83;;;1.30;;
60847;SDS011;46681;47.696;9.140;2023-03-14T00:11:21;1.50;;;1.10;;
60847;SDS011;46681;47.696;9.140;2023-03-14T00:13:49;1.30;;;1.20;;
60847;SDS011;46681;47.696;9.140;2023-03-14T00:16:19;1.40;;;1.30;;
60847;SDS011;46681;47.696;9.140;2023-03-14T00:18:48;2.50;;;1.20;;
60847;SDS011;46681;47.696;9.140;2023-03-14T00:21:14;1.30;;;1.20;;
60847;SDS011;46681;47.696;9.140;2023-03-14T00:23:41;1.40;;;1.00;;
60847;SDS011;46681;47.696;9.140;2023-03-14T00:26:13;1.70;;;1.30;;
60847;SDS011;46681;47.696;9.140;2023-03-14T00:28:42;1.90;;;1.10;;
60847;SDS011;46681;47.696;9.140;2023-03-14T00:31:10;0.93;;;0.90;;
60847;SDS011;46681;47.696;9.140;2023-03-14T00:33:41;2.20;;;1.20;;
60847;SDS011;46681;47.696;9.140;2023-03-14T00:36:09;1.77;;;1.30;;
60847;SDS011;46681;47.696;9.140;2023-03-14T00:38:37;2.30;;;1.10;;
60847;SDS011;46681;47.696;9.140;2023-03-14T00:41:08;1.07;;;0.97;;
60847;SDS011;46681;47.696;9.140;2023-03-14T00:43:35;1.00;;;1.00;;
60847;SDS011;46681;47.696;9.140;2023-03-14T00:46:01;1.50;;;0.97;;
60847;SDS011;46681;47.696;9.140;2023-03-14T00:48:30;1.07;;;1.00;;
60847;SDS011;46681;47.696;9.140;2023-03-14T00:50:57;0.70;;;0.70;;
60847;SDS011;46681;47.696;9.140;2023-03-14T00:53:24;1.33;;;0.90;;
60847;SDS011;46681;47.696;9.140;2023-03-14T00:55:52;0.90;;;0.90;;
60847;SDS011;46681;47.696;9.140;2023-03-14T00:58:19;0.90;;;0.90;;
60847;SDS011;46681;47.696;9.140;2023-03-14T01:00:46;1.00;;;1.00;;
60847;SDS011;46681;47.696;9.140;2023-03-14T01:03:13;0.90;;;0.90;;
60847;SDS011;46681;47.696;9.140;2023-03-14T01:05:42;1.43;;;0.90;;
60847;SDS011;46681;47.696;9.140;2023-03-14T01:08:10;0.80;;;0.80;;
60847;SDS011;46681;47.696;9.140;2023-03-14T01:10:40;0.87;;;0.80;;
60847;SDS011;46681;47.696;9.140;2023-03-14T01:13:06;1.23;;;0.80;;
60847;SDS011;46681;47.696;9.140;2023-03-14T01:15:35;1.00;;;0.80;;
60847;SDS011;46681;47.696;9.140;2023-03-14T01:18:02;0.70;;;0.70;;
60847;SDS011;46681;47.696;9.140;2023-03-14T01:20:29;0.97;;;0.83;;
60847;SDS011;46681;47.696;9.140;2023-03-14T01:22:56;1.07;;;0.70;;
60847;SDS011;46681;47.696;9.140;2023-03-14T01:25:23;1.17;;;0.90;;
60847;SDS011;46681;47.696;9.140;2023-03-14T01:27:50;0.70;;;0.60;;
60847;SDS011;46681;47.696;9.140;2023-03-14T01:30:17;0.70;;;0.70;;
60847;SDS011;46681;47.696;9.140;2023-03-14T01:32:44;0.70;;;0.70;;
60847;SDS011;46681;47.696;9.140;2023-03-14T01:35:12;0.63;;;0.63;;
60847;SDS011;46681;47.696;9.140;2023-03-14T01:37:39;1.37;;;0.90;;
60847;SDS011;46681;47.696;9.140;2023-03-14T01:40:06;0.70;;;0.70;;
60847;SDS011;46681;47.696;9.140;2023-03-14T01:42:36;0.60;;;0.60;;
60847;SDS011;46681;47.696;9.140;2023-03-14T01:45:03;0.63;;;0.63;;
60847;SDS011;46681;47.696;9.140;2023-03-14T01:47:30;0.70;;;0.70;;
60847;SDS011;46681;47.696;9.140;2023-03-14T01:50:06;0.70;;;0.70;;
60847;SDS011;46681;47.696;9.140;2023-03-14T01:52:43;0.93;;;0.70;;
60847;SDS011;46681;47.696;9.140;2023-03-14T01:55:15;0.70;;;0.70;;
60847;SDS011;46681;47.696;9.140;2023-03-14T01:57:46;0.70;;;0.70;;
60847;SDS011;46681;47.696;9.140;2023-03-14T02:00:18;0.80;;;0.80;;
60847;SDS011;46681;47.696;9.140;2023-03-14T02:02:47;0.67;;;0.67;;
60847;SDS011;46681;47.696;9.140;2023-03-14T02:05:20;0.70;;;0.70;;
60847;SDS011;46681;47.696;9.140;2023-03-14T02:07:53;0.60;;;0.60;;
60847;SDS011;46681;47.696;9.140;2023-03-14T02:10:27;0.73;;;0.73;;
60847;SDS011;46681;47.696;9.140;2023-03-14T02:12:59;0.60;;;0.60;;
60847;SDS011;46681;47.696;9.140;2023-03-14T02:15:30;0.70;;;0.70;;
60847;SDS011;46681;47.696;9.140;2023-03-14T02:17:58;0.70;;;0.70;;
60847;SDS011;46681;47.696;9.140;2023-03-14T02:27:21;0.70;;;0.70;;
60847;SDS011;46681;47.696;9.140;2023-03-14T02:30:00;0.80;;;0.80;;
60847;SDS011;46681;47.696;9.140;2023-03-14T02:32:47;0.57;;;0.57;;
60847;SDS011;46681;47.696;9.140;2023-03-14T02:41:01;0.60;;;0.60;;
60847;SDS011;46681;47.696;9.140;2023-03-14T02:43:29;0.93;;;0.93;;
60847;SDS011;46681;47.696;9.140;2023-03-14T02:45:57;0.70;;;0.70;;
60847;SDS011;46681;47.696;9.140;2023-03-14T02:48:30;0.70;;;0.70;;
60847;SDS011;46681;47.696;9.140;2023-03-14T02:51:00;0.60;;;0.60;;
60847;SDS011;46681;47.696;9.140;2023-03-14T02:53:29;0.70;;;0.70;;
60847;SDS011;46681;47.696;9.140;2023-03-14T02:55:59;0.70;;;0.70;;
60847;SDS011;46681;47.696;9.140;2023-03-14T02:58:27;0.60;;;0.60;;
60847;SDS011;46681;47.696;9.140;2023-03-14T03:00:54;0.60;;;0.60;;
60847;SDS011;46681;47.696;9.140;2023-03-14T03:03:21;0.63;;;0.63;;
60847;SDS011;46681;47.696;9.140;2023-03-14T03:05:49;0.70;;;0.70;;
60847;SDS011;46681;47.696;9.140;2023-03-14T03:08:19;0.60;;;0.60;;
60847;SDS011;46681;47.696;9.140;2023-03-14T03:10:48;0.80;;;0.80;;
60847;SDS011;46681;47.696;9.140;2023-03-14T03:13:16;0.60;;;0.60;;
60847;SDS011;46681;47.696;9.140;2023-03-14T03:15:46;0.70;;;0.70;;
60847;SDS011;46681;47.696;9.140;2023-03-14T03:18:12;0.70;;;0.70;;
60847;SDS011;46681;47.696;9.140;2023-03-14T03:20:39;0.60;;;0.60;;
60847;SDS011;46681;47.696;9.140;2023-03-14T03:23:05;0.60;;;0.60;;
60847;SDS011;46681;47.696;9.140;2023-03-14T03:25:30;1.00;;;0.70;;
60847;SDS011;46681;47.696;9.140;2023-03-14T03:27:57;0.70;;;0.70;;
60847;SDS011;46681;47.696;9.140;2023-03-14T03:30:24;0.60;;;0.60;;
60847;SDS011;46681;47.696;9.140;2023-03-14T03:32:51;0.60;;;0.60;;
60847;SDS011;46681;47.696;9.140;2023-03-14T03:35:20;0.67;;;0.67;;
60847;SDS011;46681;47.696;9.140;2023-03-14T03:37:48;0.60;;;0.60;;
60847;SDS011;46681;47.696;9.140;2023-03-14T03:40:13;0.60;;;0.60;;
60847;SDS011;46681;47.696;9.140;2023-03-14T03:42:43;0.50;;;0.50;;
60847;SDS011;46681;47.696;9.140;2023-03-14T03:45:09;1.30;;;0.50;;
60847;SDS011;46681;47.696;9.140;2023-03-14T03:47:35;0.70;;;0.70;;
60847;SDS011;46681;47.696;9.140;2023-03-14T03:50:00;0.60;;;0.60;;
60847;SDS011;46681;47.696;9.140;2023-03-14T03:52:26;0.60;;;0.60;;
60847;SDS011;46681;47.696;9.140;2023-03-14T03:54:53;0.73;;;0.73;;
60847;SDS011;46681;47.696;9.140;2023-03-14T03:57:20;0.73;;;0.73;;
60847;SDS011;46681;47.696;9.140;2023-03-14T03:59:47;0.70;;;0.70;;
60847;SDS011;46681;47.696;9.140;2023-03-14T04:02:14;0.60;;;0.60;;
60847;SDS011;46681;47.696;9.140;2023-03-14T04:04:39;0.60;;;0.60;;
60847;SDS011;46681;47.696;9.140;2023-03-14T04:07:06;0.60;;;0.60;;
60847;SDS011;46681;47.696;9.140;2023-03-14T04:09:37;0.70;;;0.70;;
60847;SDS011;46681;47.696;9.140;2023-03-14T04:12:04;0.50;;;0.50;;
60847;SDS011;46681;47.696;9.140;2023-03-14T04:14:30;0.70;;;0.70;;
60847;SDS011;46681;47.696;9.140;2023-03-14T04:16:57;0.80;;;0.80;;
60847;SDS011;46681;47.696;9.140;2023-03-14T04:19:24;0.70;;;0.70;;
60847;SDS011;46681;47.696;9.140;2023-03-14T04:21:52;0.60;;;0.60;;
60847;SDS011;46681;47.696;9.140;2023-03-14T04:24:19;0.80;;;0.80;;
60847;SDS011;46681;47.696;9.140;2023-03-14T04:26:46;0.70;;;0.70;;
60847;SDS011;46681;47.696;9.140;2023-03-14T04:29:12;0.70;;;0.70;;
60847;SDS011;46681;47.696;9.140;2023-03-14T04:31:41;0.70;;;0.70;;
60847;SDS011;46681;47.696;9.140;2023-03-14T04:34:08;0.63;;;0.63;;
60847;SDS011;46681;47.696;9.140;2023-03-14T04:36:35;0.70;;;0.70;;
60847;SDS011;46681;47.696;9.140;2023-03-14T04:39:00;0.70;;;0.70;;
60847;SDS011;46681;47.696;9.140;2023-03-14T04:41:27;0.60;;;0.60;;
60847;SDS011;46681;47.696;9.140;2023-03-14T04:43:56;0.50;;;0.50;;
60847;SDS011;46681;47.696;9.140;2023-03-14T04:46:22;0.57;;;0.57;;
60847;SDS011;46681;47.696;9.140;2023-03-14T04:48:52;0.70;;;0.70;;
60847;SDS011;46681;47.696;9.140;2023-03-14T04:51:26;0.50;;;0.50;;
60847;SDS011;46681;47.696;9.140;2023-03-14T04:53:54;0.60;;;0.60;;
60847;SDS011;46681;47.696;9.140;2023-03-14T04:56:21;0.60;;;0.60;;
60847;SDS011;46681;47.696;9.140;2023-03-14T04:58:48;0.60;;;0.60;;
60847;SDS011;46681;47.696;9.140;2023-03-14T05:01:15;1.17;;;0.80;;
60847;SDS011;46681;47.696;9.140;2023-03-14T05:03:41;0.63;;;0.63;;
60847;SDS011;46681;47.696;9.140;2023-03-14T05:06:07;0.80;;;0.80;;
60847;SDS011;46681;47.696;9.140;2023-03-14T05:08:35;0.80;;;0.80;;
60847;SDS011;46681;47.696;9.140;2023-03-14T05:11:01;0.70;;;0.70;;
60847;SDS011;46681;47.696;9.140;2023-03-14T05:13:28;0.80;;;0.80;;
60847;SDS011;46681;47.696;9.140;2023-03-14T05:16:11;0.80;;;0.80;;
60847;SDS011;46681;47.696;9.140;2023-03-14T05:18:37;0.80;;;0.80;;
60847;SDS011;46681;47.696;9.140;2023-03-14T05:21:04;0.70;;;0.70;;
60847;SDS011;46681;47.696;9.140;2023-03-14T05:23:31;0.70;;;0.70;;
60847;SDS011;46681;47.696;9.140;2023-03-14T05:25:57;0.83;;;0.83;;
60847;SDS011;46681;47.696;9.140;2023-03-14T05:28:24;0.70;;;0.70;;
60847;SDS011;46681;47.696;9.140;2023-03-14T05:30:56;0.70;;;0.70;;
60847;SDS011;46681;47.696;9.140;2023-03-14T05:33:22;0.87;;;0.87;;
60847;SDS011;46681;47.696;9.140;2023-03-14T05:35:51;0.70;;;0.70;;
60847;SDS011;46681;47.696;9.140;2023-03-14T05:38:17;0.80;;;0.80;;
60847;SDS011;46681;47.696;9.140;2023-03-14T05:40:44;0.80;;;0.80;;
60847;SDS011;46681;47.696;9.140;2023-03-14T05:43:13;0.80;;;0.80;;
60847;SDS011;46681;47.696;9.140;2023-03-14T05:45:45;1.57;;;0.87;;
60847;SDS011;46681;47.696;9.140;2023-03-14T05:48:15;1.43;;;0.80;;
60847;SDS011;46681;47.696;9.140;2023-03-14T05:50:44;1.30;;;0.70;;
60847;SDS011;46681;47.696;9.140;2023-03-14T05:53:13;0.70;;;0.70;;
60847;SDS011;46681;47.696;9.140;2023-03-14T05:55:40;0.70;;;0.70;;
60847;SDS011;46681;47.696;9.140;2023-03-14T05:58:07;0.80;;;0.80;;
60847;SDS011;46681;47.696;9.140;2023-03-14T06:00:34;0.80;;;0.80;;
60847;SDS011;46681;47.696;9.140;2023-03-14T06:03:02;0.97;;;0.97;;
60847;SDS011;46681;47.696;9.140;2023-03-14T06:05:30;0.60;;;0.60;;
60847;SDS011;46681;47.696;9.140;2023-03-14T06:07:57;0.70;;;0.70;;
60847;SDS011;46681;47.696;9.140;2023-03-14T06:10:25;0.60;;;0.60;;
60847;SDS011;46681;47.696;9.140;2023-03-14T06:12:55;0.70;;;0.70;;
60847;SDS011;46681;47.696;9.140;2023-03-14T06:15:22;0.60;;;0.60;;
60847;SDS011;46681;47.696;9.140;2023-03-14T06:17:53;0.80;;;0.80;;
60847;SDS011;46681;47.696;9.140;2023-03-14T06:20:21;0.70;;;0.70;;
60847;SDS011;46681;47.696;9.140;2023-03-14T06:22:48;0.87;;;0.87;;
60847;SDS011;46681;47.696;9.140;2023-03-14T06:25:24;0.73;;;0.73;;
60847;SDS011;46681;47.696;9.140;2023-03-14T06:27:54;0.80;;;0.80;;
60847;SDS011;46681;47.696;9.140;2023-03-14T06:30:24;0.80;;;0.80;;
60847;SDS011;46681;47.696;9.140;2023-03-14T06:32:50;0.67;;;0.67;;
60847;SDS011;46681;47.696;9.140;2023-03-14T06:35:16;1.97;;;0.93;;
60847;SDS011;46681;47.696;9.140;2023-03-14T06:37:49;2.57;;;0.90;;
60847;SDS011;46681;47.696;9.140;2023-03-14T06:40:21;3.07;;;0.80;;
60847;SDS011;46681;47.696;9.140;2023-03-14T06:43:03;1.67;;;0.93;;
60847;SDS011;46681;47.696;9.140;2023-03-14T06:45:30;1.40;;;0.73;;
60847;SDS011;46681;47.696;9.140;2023-03-14T06:47:58;1.07;;;1.07;;
60847;SDS011;46681;47.696;9.140;2023-03-14T06:50:31;1.70;;;1.17;;
60847;SDS011;46681;47.696;9.140;2023-03-14T06:52:58;1.30;;;0.83;;
60847;SDS011;46681;47.696;9.140;2023-03-14T06:55:29;2.73;;;1.10;;
60847;SDS011;46681;47.696;9.140;2023-03-14T06:58:01;1.00;;;0.93;;
60847;SDS011;46681;47.696;9.140;2023-03-14T07:00:28;0.90;;;0.90;;
60847;SDS011;46681;47.696;9.140;2023-03-14T07:02:55;0.80;;;0.80;;
60847;SDS011;46681;47.696;9.140;2023-03-14T07:05:22;1.30;;;1.00;;
60847;SDS011;46681;47.696;9.140;2023-03-14T07:07:50;1.47;;;1.37;;
60847;SDS011;46681;47.696;9.140;2023-03-14T07:10:17;0.80;;;0.80;;
60847;SDS011;46681;47.696;9.140;2023-03-14T07:12:49;0.80;;;0.80;;
60847;SDS011;46681;47.696;9.140;2023-03-14T07:15:19;0.70;;;0.70;;
60847;SDS011;46681;47.696;9.140;2023-03-14T07:17:48;0.80;;;0.80;;
60847;SDS011;46681;47.696;9.140;2023-03-14T07:20:15;0.60;;;0.60;;
60847;SDS011;46681;47.696;9.140;2023-03-14T07:22:42;0.90;;;0.90;;
60847;SDS011;46681;47.696;9.140;2023-03-14T07:25:08;0.70;;;0.70;;
60847;SDS011;46681;47.696;9.140;2023-03-14T07:27:36;0.70;;;0.70;;
60847;SDS011;46681;47.696;9.140;2023-03-14T07:30:07;0.80;;;0.80;;
60847;SDS011;46681;47.696;9.140;2023-03-14T07:32:40;0.50;;;0.50;;
60847;SDS011;46681;47.696;9.140;2023-03-14T07:35:18;2.00;;;0.90;;
60847;SDS011;46681;47.696;9.140;2023-03-14T07:37:47;0.73;;;0.73;;
60847;SDS011;46681;47.696;9.140;2023-03-14T07:40:16;0.77;;;0.77;;
60847;SDS011;46681;47.696;9.140;2023-03-14T07:42:52;1.10;;;1.00;;
60847;SDS011;46681;47.696;9.140;2023-03-14T07:45:18;0.77;;;0.77;;
60847;SDS011;46681;47.696;9.140;2023-03-14T07:47:49;0.70;;;0.70;;
60847;SDS011;46681;47.696;9.140;2023-03-14T07:50:16;0.80;;;0.80;;
60847;SDS011;46681;47.696;9.140;2023-03-14T07:52:42;1.60;;;0.80;;
60847;SDS011;46681;47.696;9.140;2023-03-14T07:55:10;0.80;;;0.80;;
60847;SDS011;46681;47.696;9.140;2023-03-14T07:57:36;0.90;;;0.90;;
60847;SDS011;46681;47.696;9.140;2023-03-14T08:00:02;0.70;;;0.70;;
60847;SDS011;46681;47.696;9.140;2023-03-14T08:02:32;1.03;;;0.80;;
60847;SDS011;46681;47.696;9.140;2023-03-14T08:05:03;1.57;;;0.70;;
60847;SDS011;46681;47.696;9.140;2023-03-14T08:07:30;1.23;;;0.90;;
60847;SDS011;46681;47.696;9.140;2023-03-14T08:10:01;1.50;;;0.80;;
60847;SDS011;46681;47.696;9.140;2023-03-14T08:12:29;0.60;;;0.60;;
60847;SDS011;46681;47.696;9.140;2023-03-14T08:15:00;0.80;;;0.80;;
60847;SDS011;46681;47.696;9.140;2023-03-14T08:17:37;0.53;;;0.53;;
60847;SDS011;46681;47.696;9.140;2023-03-14T08:20:05;1.80;;;0.80;;
60847;SDS011;46681;47.696;9.140;2023-03-14T08:22:31;0.80;;;0.80;;
60847;SDS011;46681;47.696;9.140;2023-03-14T08:24:59;1.30;;;0.80;;
60847;SDS011;46681;47.696;9.140;2023-03-14T08:27:25;0.80;;;0.80;;
60847;SDS011;46681;47.696;9.140;2023-03-14T08:29:54;0.57;;;0.57;;
60847;SDS011;46681;47.696;9.140;2023-03-14T08:32:25;0.70;;;0.70;;
60847;SDS011;46681;47.696;9.140;2023-03-14T08:34:52;0.67;;;0.67;;
60847;SDS011;46681;47.696;9.140;2023-03-14T08:37:21;1.13;;;0.70;;
60847;SDS011;46681;47.696;9.140;2023-03-14T08:39:50;1.40;;;0.83;;
60847;SDS011;46681;47.696;9.140;2023-03-14T08:42:20;0.70;;;0.70;;
60847;SDS011;46681;47.696;9.140;2023-03-14T08:44:52;1.33;;;0.70;;
60847;SDS011;46681;47.696;9.140;2023-03-14T08:47:24;0.60;;;0.57;;
60847;SDS011;46681;47.696;9.140;2023-03-14T08:49:56;1.43;;;0.80;;
60847;SDS011;46681;47.696;9.140;2023-03-14T08:52:31;0.90;;;0.90;;
60847;SDS011;46681;47.696;9.140;2023-03-14T08:55:17;0.70;;;0.70;;
60847;SDS011;46681;47.696;9.140;2023-03-14T08:57:45;0.70;;;0.70;;
60847;SDS011;46681;47.696;9.140;2023-03-14T09:00:13;0.60;;;0.60;;
60847;SDS011;46681;47.696;9.140;2023-03-14T09:02:43;0.70;;;0.70;;
60847;SDS011;46681;47.696;9.140;2023-03-14T09:05:17;0.73;;;0.73;;
60847;SDS011;46681;47.696;9.140;2023-03-14T09:07:48;0.70;;;0.70;;
60847;SDS011;46681;47.696;9.140;2023-03-14T09:10:17;1.97;;;0.70;;
60847;SDS011;46681;47.696;9.140;2023-03-14T09:12:46;1.50;;;0.80;;
60847;SDS011;46681;47.696;9.140;2023-03-14T09:15:16;0.87;;;0.70;;
60847;SDS011;46681;47.696;9.140;2023-03-14T09:17:44;0.60;;;0.60;;
60847;SDS011;46681;47.696;9.140;2023-03-14T09:20:11;2.10;;;0.83;;
60847;SDS011;46681;47.696;9.140;2023-03-14T09:22:39;0.70;;;0.70;;
60847;SDS011;46681;47.696;9.140;2023-03-14T09:25:07;1.73;;;0.80;;
60847;SDS011;46681;47.696;9.140;2023-03-14T09:27:37;0.67;;;0.67;;
60847;SDS011;46681;47.696;9.140;2023-03-14T09:30:07;0.67;;;0.67;;
60847;SDS011;46681;47.696;9.140;2023-03-14T09:32:52;0.80;;;0.80;;
60847;SDS011;46681;47.696;9.140;2023-03-14T09:35:27;0.60;;;0.60;;
60847;SDS011;46681;47.696;9.140;2023-03-14T09:37:57;0.50;;;0.50;;
60847;SDS011;46681;47.696;9.140;2023-03-14T09:40:24;0.60;;;0.60;;
60847;SDS011;46681;47.696;9.140;2023-03-14T09:43:05;0.90;;;0.90;;
60847;SDS011;46681;47.696;9.140;2023-03-14T09:45:40;1.40;;;0.80;;
60847;SDS011;46681;47.696;9.140;2023-03-14T09:48:12;1.13;;;0.90;;
60847;SDS011;46681;47.696;9.140;2023-03-14T09:50:52;0.70;;;0.70;;
60847;SDS011;46681;47.696;9.140;2023-03-14T09:53:40;0.77;;;0.77;;
60847;SDS011;46681;47.696;9.140;2023-03-14T09:56:13;0.80;;;0.80;;
60847;SDS011;46681;47.696;9.140;2023-03-14T09:58:51;0.60;;;0.60;;
60847;SDS011;46681;47.696;9.140;2023-03-14T10:01:32;0.70;;;0.70;;
60847;SDS011;46681;47.696;9.140;2023-03-14T10:04:15;0.80;;;0.80;;
60847;SDS011;46681;47.696;9.140;2023-03-14T10:06:56;1.73;;;0.60;;
60847;SDS011;46681;47.696;9.140;2023-03-14T10:09:24;0.87;;;0.70;;
60847;SDS011;46681;47.696;9.140;2023-03-14T10:12:08;0.60;;;0.60;;
60847;SDS011;46681;47.696;9.140;2023-03-14T10:14:50;0.60;;;0.60;;
60847;SDS011;46681;47.696;9.140;2023-03-14T10:17:28;0.60;;;0.57;;
60847;SDS011;46681;47.696;9.140;2023-03-14T10:20:04;0.60;;;0.60;;
60847;SDS011;46681;47.696;9.140;2023-03-14T10:22:31;0.73;;;0.60;;
60847;SDS011;46681;47.696;9.140;2023-03-14T10:25:10;0.80;;;0.80;;
60847;SDS011;46681;47.696;9.140;2023-03-14T10:27:59;0.60;;;0.60;;
60847;SDS011;46681;47.696;9.140;2023-03-14T10:31:00;0.63;;;0.63;;
60847;SDS011;46681;47.696;9.140;2023-03-14T10:33:30;0.73;;;0.70;;
60847;SDS011;46681;47.696;9.140;2023-03-14T10:42:29;0.80;;;0.80;;
60847;SDS011;46681;47.696;9.140;2023-03-14T10:45:54;0.60;;;0.60;;
60847;SDS011;46681;47.696;9.140;2023-03-14T10:48:39;0.50;;;0.50;;
60847;SDS011;46681;47.696;9.140;2023-03-14T10:59:44;0.60;;;0.60;;
60847;SDS011;46681;47.696;9.140;2023-03-14T11:03:07;0.50;;;0.50;;
60847;SDS011;46681;47.696;9.140;2023-03-14T11:11:30;0.70;;;0.70;;
60847;SDS011;46681;47.696;9.140;2023-03-14T11:20:24;0.70;;;0.70;;
60847;SDS011;46681;47.696;9.140;2023-03-14T11:23:23;0.87;;;0.70;;
60847;SDS011;46681;47.696;9.140;2023-03-14T11:26:20;0.90;;;0.90;;
60847;SDS011;46681;47.696;9.140;2023-03-14T11:32:02;0.63;;;0.63;;
60847;SDS011;46681;47.696;9.140;2023-03-14T11:40:57;0.60;;;0.60;;
60847;SDS011;46681;47.696;9.140;2023-03-14T11:43:36;6.33;;;1.27;;
60847;SDS011;46681;47.696;9.140;2023-03-14T11:46:16;0.83;;;0.70;;
60847;SDS011;46681;47.696;9.140;2023-03-14T11:51:47;0.70;;;0.70;;
60847;SDS011;46681;47.696;9.140;2023-03-14T11:57:18;0.80;;;0.80;;
60847;SDS011;46681;47.696;9.140;2023-03-14T12:09:00;2.20;;;0.77;;
60847;SDS011;46681;47.696;9.140;2023-03-14T12:12:13;1.50;;;0.80;;
60847;SDS011;46681;47.696;9.140;2023-03-14T12:15:06;0.60;;;0.60;;
60847;SDS011;46681;47.696;9.140;2023-03-14T12:18:00;0.60;;;0.60;;
60847;SDS011;46681;47.696;9.140;2023-03-14T12:20:26;0.60;;;0.60;;
60847;SDS011;46681;47.696;9.140;2023-03-14T12:23:12;0.60;;;0.60;;
60847;SDS011;46681;47.696;9.140;2023-03-14T12:25:45;0.60;;;0.60;;
60847;SDS011;46681;47.696;9.140;2023-03-14T12:28:20;0.80;;;0.80;;
60847;SDS011;46681;47.696;9.140;2023-03-14T12:39:56;1.57;;;0.80;;
60847;SDS011;46681;47.696;9.140;2023-03-14T12:43:00;0.97;;;0.70;;
60847;SDS011;46681;47.696;9.140;2023-03-14T12:46:15;0.70;;;0.70;;
60847;SDS011;46681;47.696;9.140;2023-03-14T12:48:45;0.70;;;0.70;;
60847;SDS011;46681;47.696;9.140;2023-03-14T13:02:29;0.63;;;0.63;;
60847;SDS011;46681;47.696;9.140;2023-03-14T13:05:14;0.80;;;0.80;;
60847;SDS011;46681;47.696;9.140;2023-03-14T13:10:45;0.70;;;0.70;;
60847;SDS011;46681;47.696;9.140;2023-03-14T13:13:26;0.87;;;0.87;;
60847;SDS011;46681;47.696;9.140;2023-03-14T13:16:00;0.80;;;0.80;;
60847;SDS011;46681;47.696;9.140;2023-03-14T13:19:02;1.10;;;0.70;;
60847;SDS011;46681;47.696;9.140;2023-03-14T13:22:12;0.80;;;0.80;;
60847;SDS011;46681;47.696;9.140;2023-03-14T13:24:48;0.83;;;0.83;;
60847;SDS011;46681;47.696;9.140;2023-03-14T13:27:18;0.80;;;0.80;;
60847;SDS011;46681;47.696;9.140;2023-03-14T13:29:58;0.80;;;0.80;;
60847;SDS011;46681;47.696;9.140;2023-03-14T13:32:34;0.83;;;0.70;;
60847;SDS011;46681;47.696;9.140;2023-03-14T13:35:24;0.77;;;0.77;;
60847;SDS011;46681;47.696;9.140;2023-03-14T13:38:29;0.50;;;0.50;;
60847;SDS011;46681;47.696;9.140;2023-03-14T13:40:58;1.30;;;0.70;;
60847;SDS011;46681;47.696;9.140;2023-03-14T13:43:46;2.07;;;0.90;;
60847;SDS011;46681;47.696;9.140;2023-03-14T13:46:14;1.97;;;0.77;;
60847;SDS011;46681;47.696;9.140;2023-03-14T13:49:02;0.90;;;0.90;;
60847;SDS011;46681;47.696;9.140;2023-03-14T13:51:38;1.13;;;0.80;;
60847;SDS011;46681;47.696;9.140;2023-03-14T13:54:18;0.93;;;0.80;;
60847;SDS011;46681;47.696;9.140;2023-03-14T13:56:58;0.70;;;0.70;;
60847;SDS011;46681;47.696;9.140;2023-03-14T13:59:33;0.80;;;0.80;;
60847;SDS011;46681;47.696;9.140;2023-03-14T14:02:05;0.50;;;0.50;;
60847;SDS011;46681;47.696;9.140;2023-03-14T14:04:42;0.80;;;0.80;;
60847;SDS011;46681;47.696;9.140;2023-03-14T14:07:13;2.00;;;0.80;;
60847;SDS011;46681;47.696;9.140;2023-03-14T14:09:46;1.90;;;0.80;;
60847;SDS011;46681;47.696;9.140;2023-03-14T14:12:20;0.80;;;0.80;;
60847;SDS011;46681;47.696;9.140;2023-03-14T14:14:59;0.80;;;0.67;;
60847;SDS011;46681;47.696;9.140;2023-03-14T14:20:05;1.03;;;0.90;;
60847;SDS011;46681;47.696;9.140;2023-03-14T14:22:43;0.77;;;0.73;;
60847;SDS011;46681;47.696;9.140;2023-03-14T14:25:16;2.43;;;0.90;;
60847;SDS011;46681;47.696;9.140;2023-03-14T14:27:47;0.93;;;0.80;;
60847;SDS011;46681;47.696;9.140;2023-03-14T14:33:40;1.93;;;1.13;;
60847;SDS011;46681;47.696;9.140;2023-03-14T14:36:32;1.10;;;0.90;;
60847;SDS011;46681;47.696;9.140;2023-03-14T14:39:15;0.70;;;0.70;;
60847;SDS011;46681;47.696;9.140;2023-03-14T14:41:58;1.20;;;1.10;;
60847;SDS011;46681;47.696;9.140;2023-03-14T14:44:55;1.80;;;0.80;;
60847;SDS011;46681;47.696;9.140;2023-03-14T14:47:36;0.70;;;0.67;;
60847;SDS011;46681;47.696;9.140;2023-03-14T14:50:29;3.00;;;0.80;;
60847;SDS011;46681;47.696;9.140;2023-03-14T14:53:44;2.83;;;0.90;;
60847;SDS011;46681;47.696;9.140;2023-03-14T14:56:17;1.13;;;1.03;;
60847;SDS011;46681;47.696;9.140;2023-03-14T14:59:26;1.97;;;1.00;;
60847;SDS011;46681;47.696;9.140;2023-03-14T15:02:24;11.23;;;1.37;;
60847;SDS011;46681;47.696;9.140;2023-03-14T15:05:21;1.00;;;0.90;;
60847;SDS011;46681;47.696;9.140;2023-03-14T15:07:50;1.20;;;0.90;;
60847;SDS011;46681;47.696;9.140;2023-03-14T15:10:18;1.20;;;0.80;;
60847;SDS011;46681;47.696;9.140;2023-03-14T15:13:00;2.37;;;0.90;;
60847;SDS011;46681;47.696;9.140;2023-03-14T15:15:30;2.50;;;0.90;;
60847;SDS011;46681;47.696;9.140;2023-03-14T15:17:58;1.90;;;1.00;;
60847;SDS011;46681;47.696;9.140;2023-03-14T15:20:30;1.60;;;0.90;;
60847;SDS011;46681;47.696;9.140;2023-03-14T15:22:55;2.97;;;1.30;;
60847;SDS011;46681;47.696;9.140;2023-03-14T15:25:28;1.50;;;1.10;;
60847;SDS011;46681;47.696;9.140;2023-03-14T15:27:58;1.10;;;1.00;;
60847;SDS011;46681;47.696;9.140;2023-03-14T15:30:24;1.43;;;0.90;;
60847;SDS011;46681;47.696;9.140;2023-03-14T15:32:55;1.00;;;0.83;;
60847;SDS011;46681;47.696;9.140;2023-03-14T15:35:31;1.90;;;1.03;;
60847;SDS011;46681;47.696;9.140;2023-03-14T15:37:59;1.30;;;1.20;;
60847;SDS011;46681;47.696;9.140;2023-03-14T15:40:31;3.13;;;1.90;;
60847;SDS011;46681;47.696;9.140;2023-03-14T15:43:01;1.70;;;1.00;;
60847;SDS011;46681;47.696;9.140;2023-03-14T15:45:30;1.57;;;0.93;;
60847;SDS011;46681;47.696;9.140;2023-03-14T15:48:01;1.43;;;1.03;;
60847;SDS011;46681;47.696;9.140;2023-03-14T15:50:33;3.07;;;1.00;;
60847;SDS011;46681;47.696;9.140;2023-03-14T15:53:01;1.33;;;1.13;;
60847;SDS011;46681;47.696;9.140;2023-03-14T15:55:32;3.47;;;1.27;;
60847;SDS011;46681;47.696;9.140;2023-03-14T15:58:01;2.20;;;1.10;;
60847;SDS011;46681;47.696;9.140;2023-03-14T16:00:32;3.40;;;1.30;;
60847;SDS011;46681;47.696;9.140;2023-03-14T16:03:07;1.37;;;1.10;;
60847;SDS011;46681;47.696;9.140;2023-03-14T16:05:40;1.50;;;1.00;;
60847;SDS011;46681;47.696;9.140;2023-03-14T16:10:58;3.00;;;1.00;;
60847;SDS011;46681;47.696;9.140;2023-03-14T16:13:43;2.40;;;1.27;;
60847;SDS011;46681;47.696;9.140;2023-03-14T16:16:10;2.13;;;1.10;;
60847;SDS011;46681;47.696;9.140;2023-03-14T16:18:43;1.40;;;1.17;;
60847;SDS011;46681;47.696;9.140;2023-03-14T16:21:30;1.70;;;1.17;;
60847;SDS011;46681;47.696;9.140;2023-03-14T16:23:58;4.80;;;1.33;;
60847;SDS011;46681;47.696;9.140;2023-03-14T16:26:34;1.07;;;1.07;;
60847;SDS011;46681;47.696;9.140;2023-03-14T16:32:26;3.73;;;1.20;;
60847;SDS011;46681;47.696;9.140;2023-03-14T16:35:04;1.23;;;1.13;;
60847;SDS011;46681;47.696;9.140;2023-03-14T16:37:34;1.80;;;1.10;;
60847;SDS011;46681;47.696;9.140;2023-03-14T16:43:55;2.63;;;1.30;;
60847;SDS011;46681;47.696;9.140;2023-03-14T16:46:18;1.50;;;1.33;;
60847;SDS011;46681;47.696;9.140;2023-03-14T16:49:08;1.57;;;0.93;;
60847;SDS011;46681;47.696;9.140;2023-03-14T16:54:49;1.40;;;1.30;;
60847;SDS011;46681;47.696;9.140;2023-03-14T16:57:39;1.67;;;1.40;;
60847;SDS011;46681;47.696;9.140;2023-03-14T17:03:07;1.33;;;1.17;;
60847;SDS011;46681;47.696;9.140;2023-03-14T17:05:40;2.23;;;1.00;;
60847;SDS011;46681;47.696;9.140;2023-03-14T17:08:11;2.27;;;1.30;;
60847;SDS011;46681;47.696;9.140;2023-03-14T17:10:43;1.20;;;1.10;;